Home > Products > Valid Products > TAF

000
FTUS41 KOKX 201700
TAFSWF
TAF
KSWF 201734Z 2018/2124 24008KT P6SM BKN150
     FM210000 VRB03KT P6SM SCT035 BKN120
     FM211500 12004KT P6SM -RA SCT025 BKN035
      AMD NOT SKED=



000
FTUS41 KOKX 201700
TAFGON
TAF
KGON 201734Z 2018/2118 22010KT P6SM FEW030 BKN150
     FM210000 20006KT P6SM FEW035 BKN150
     FM210500 19005KT P6SM -RA SCT025 BKN035 BKN120
     FM210900 14004KT 6SM -RA BKN025 OVC035=



000
FTUS41 KOKX 201700
TAFLGA
TAF
KLGA 201734Z 2018/2118 21009KT P6SM SCT150 BKN200
     FM210600 20006KT P6SM SCT050 BKN120
     FM211000 15005KT P6SM BKN040 BKN100=



000
FTUS41 KOKX 201700
TAFISP
TAF
KISP 201734Z 2018/2118 21010KT P6SM SCT150 BKN200
     FM210000 20006KT P6SM FEW035 BKN150
     FM210500 20005KT P6SM -RA SCT025 BKN035 BKN120
     FM211200 14004KT P6SM SCT040 BKN100=



000
FTUS41 KOKX 201700
TAFEWR
TAF
KEWR 201734Z 2018/2124 21009KT P6SM SCT150 BKN200
     FM210600 19005KT P6SM SCT050 BKN120
     FM211000 15004KT P6SM BKN040 BKN100
     FM212100 12006KT P6SM SCT040 BKN100=



000
FTUS41 KOKX 201700
TAFJFK
TAF
KJFK 201734Z 2018/2124 20010KT P6SM SCT150 BKN200
     FM210600 20006KT P6SM SCT050 BKN120
     FM211000 15006KT P6SM BKN040 BKN100
     FM212100 11006KT P6SM SCT040 BKN100=



000
FTUS41 KOKX 201700
TAFBDR
TAF
KBDR 201734Z 2018/2118 22008KT P6SM SCT150 BKN200
     FM210300 19005KT P6SM SCT035 BKN120
     FM211200 12005KT P6SM SCT040 BKN100=



000
FTUS41 KOKX 201700
TAFTEB
TAF
KTEB 201734Z 2018/2118 21008KT P6SM SCT150 BKN200
     FM210000 19004KT P6SM FEW040 BKN150
     FM210600 VRB03KT P6SM BKN040 BKN120
     FM211500 15004KT P6SM SCT040 BKN100=



000
FTUS41 KOKX 201400 AAA
TAFISP
TAF AMD
KISP 201437Z 2015/2112 23008KT P6SM SCT150 BKN200
     FM202000 21009KT P6SM FEW035 OVC150
     FM210000 20006KT P6SM SCT035 OVC120
     FM210500 20005KT P6SM -RA SCT025 BKN035 BKN120=



000
FTUS41 KOKX 201400 AAA
TAFTEB
TAF AMD
KTEB 201437Z 2015/2112 23006KT P6SM SCT150 BKN200
     FM202000 21008KT P6SM FEW035 OVC150
     FM210000 21004KT P6SM SCT035 OVC120
     FM210600 VRB03KT P6SM BKN035 OVC100=



000
FTUS41 KOKX 201400 AAA
TAFBDR
TAF AMD
KBDR 201437Z 2015/2112 24008KT P6SM SCT150 BKN200
     FM202000 22008KT P6SM FEW040 OVC150
     FM210000 21006KT P6SM SCT035 OVC120
     FM210600 21005KT P6SM BKN035 OVC100=



000
FTUS41 KOKX 201400 AAA
TAFLGA
TAF AMD
KLGA 201437Z 2015/2112 23009KT P6SM SCT150 BKN200
     FM202000 21011KT P6SM FEW040 OVC150
     FM210000 20008KT P6SM SCT035 OVC120
     FM210600 20006KT P6SM BKN035 OVC100
     FM211000 15005KT P6SM BKN035=



000
FTUS41 KOKX 201400 AAA
TAFJFK
TAF AMD
KJFK 201437Z 2015/2118 22010KT P6SM SCT150 BKN200
     FM202000 20012KT P6SM FEW035 OVC150
     FM210000 20009KT P6SM SCT035 OVC120
     FM210600 20006KT P6SM BKN035 OVC100
     FM211000 15006KT P6SM BKN035=



000
FTUS41 KOKX 201400 AAA
TAFSWF
TAF AMD
KSWF 201437Z 2015/2118 25005KT P6SM SCT150 BKN200
     FM201700 24008KT P6SM FEW040 BKN150
     FM202000 22006KT P6SM SCT035 OVC100
     FM210000 VRB03KT P6SM SCT035 OVC120
     FM210500 VRB03KT P6SM -RA BKN035 OVC100
     FM211000 VRB03KT P6SM -RA SCT025 BKN035
      AMD NOT SKED=



000
FTUS41 KOKX 201400 AAA
TAFGON
TAF AMD
KGON 201437Z 2015/2112 26006KT P6SM SCT150 BKN200
     FM201600 23009KT P6SM SCT150 BKN200
     FM202100 22008KT P6SM OVC150
     FM210000 21005KT P6SM SCT035 OVC120
     FM210500 20005KT P6SM -RA SCT025 BKN035=



000
FTUS41 KOKX 201400 AAA
TAFEWR
TAF AMD
KEWR 201437Z 2015/2118 23008KT P6SM SCT150 BKN200
     FM202000 21010KT P6SM FEW040 OVC150
     FM210000 21006KT P6SM SCT035 OVC120
     FM210600 21005KT P6SM BKN035 OVC100
     FM211000 15004KT P6SM BKN035=



000
FTUS41 KOKX 201100
TAFLGA
TAF
KLGA 201123Z 2012/2112 27007KT P6SM BKN220
     FM201400 23009KT P6SM SCT150 BKN200
     FM202000 21011KT P6SM FEW040 OVC150
     FM210000 20008KT P6SM SCT035 OVC120
     FM210600 20006KT P6SM BKN035 OVC100
     FM211000 15005KT P6SM BKN035=



000
FTUS41 KOKX 201100
TAFTEB
TAF
KTEB 201123Z 2012/2112 25002KT P6SM BKN220
     FM201400 23006KT P6SM SCT150 BKN200
     FM202000 21008KT P6SM FEW035 OVC150
     FM210000 21004KT P6SM SCT035 OVC120
     FM210600 VRB03KT P6SM BKN035 OVC100=



000
FTUS41 KOKX 201100
TAFEWR
TAF
KEWR 201123Z 2012/2118 25005KT P6SM BKN220
     FM201400 23008KT P6SM SCT150 BKN200
     FM202000 21010KT P6SM FEW040 OVC150
     FM210000 21006KT P6SM SCT035 OVC120
     FM210600 21005KT P6SM BKN035 OVC100
     FM211000 15004KT P6SM BKN035=



000
FTUS41 KOKX 201100
TAFISP
TAF
KISP 201123Z 2012/2112 25003KT P6SM BKN220
     FM201400 24008KT P6SM SCT150 BKN200
     FM202000 21009KT P6SM FEW035 OVC150
     FM210000 20006KT P6SM SCT035 OVC120
     FM210500 20005KT P6SM -RA SCT025 BKN035 BKN120=



000
FTUS41 KOKX 201100
TAFGON
TAF
KGON 201123Z 2012/2112 29005KT P6SM BKN220
     FM201600 23009KT P6SM SCT150 BKN200
     FM202100 22008KT P6SM OVC150
     FM210000 21005KT P6SM SCT035 OVC120
     FM210500 20005KT P6SM -RA SCT025 BKN035=



000
FTUS41 KOKX 201100
TAFBDR
TAF
KBDR 201123Z 2012/2112 24008KT P6SM SCT150 BKN200
     FM202000 22008KT P6SM FEW040 OVC150
     FM210000 21006KT P6SM SCT035 OVC120
     FM210600 21005KT P6SM BKN035 OVC100=



000
FTUS41 KOKX 201100
TAFJFK
TAF
KJFK 201123Z 2012/2118 27006KT P6SM BKN220
     FM201400 22010KT P6SM SCT150 BKN200
     FM202000 20012KT P6SM FEW035 OVC150
     FM210000 20009KT P6SM SCT035 OVC120
     FM210600 20006KT P6SM BKN035 OVC100
     FM211000 15006KT P6SM BKN035=



000
FTUS41 KOKX 201100
TAFSWF
TAF
KSWF 201123Z 2012/2118 VRB02KT P6SM BKN220
     FM201400 25005KT P6SM SCT150 BKN200
     FM201700 24008KT P6SM FEW040 BKN150
     FM202000 22006KT P6SM SCT035 OVC100
     FM210000 VRB03KT P6SM SCT035 OVC120
     FM210500 VRB03KT P6SM -RA BKN035 OVC100
     FM211000 VRB03KT P6SM -RA SCT025 BKN035
      AMD NOT SKED=



000
FTUS41 KOKX 200800 AAA
TAFISP
TAF AMD
KISP 200831Z 2009/2106 VRB04KT P6SM BKN220
     FM201400 24008KT P6SM BKN200
     FM202000 21009KT P6SM FEW035 OVC150
     FM210000 20006KT P6SM SCT035 OVC120
     FM210500 20005KT P6SM FEW025 SCT035 BKN120=



000
FTUS41 KOKX 200800 AAA
TAFLGA
TAF AMD
KLGA 200831Z 2009/2106 28007KT P6SM BKN220
     FM201400 24009KT P6SM BKN200
     FM202000 21011KT P6SM FEW040 OVC150
     FM210000 20008KT P6SM SCT035 OVC120=



000
FTUS41 KOKX 200800 AAA
TAFGON
TAF AMD
KGON 200831Z 2009/2106 29005KT P6SM BKN220
     FM201600 23009KT P6SM SCT120 BKN200
     FM202100 22008KT P6SM OVC150
     FM210000 21005KT P6SM SCT035 OVC120
     FM210500 20005KT P6SM FEW025 BKN035=



000
FTUS41 KOKX 200800 AAA
TAFEWR
TAF AMD
KEWR 200831Z 2009/2112 27005KT P6SM BKN220
     FM201400 23008KT P6SM BKN200
     FM202000 21010KT P6SM FEW040 OVC150
     FM210000 21006KT P6SM SCT035 OVC120
     FM210600 21005KT P6SM -RA BKN035 OVC100
     FM211000 VRB05KT P6SM -RA SCT025 BKN035=



000
FTUS41 KOKX 200800 AAA
TAFBDR
TAF AMD
KBDR 200831Z 2009/2106 VRB03KT P6SM BKN220
     FM201400 24008KT P6SM BKN200
     FM202000 22008KT P6SM FEW040 OVC150
     FM210000 21006KT P6SM SCT035 OVC120=



000
FTUS41 KOKX 200800 AAA
TAFJFK
TAF AMD
KJFK 200831Z 2009/2112 28006KT P6SM BKN220
     FM201400 22010KT P6SM BKN200
     FM202000 20012KT P6SM FEW035 OVC150
     FM210000 20009KT P6SM SCT035 OVC120
     FM210600 20006KT P6SM -RA BKN035 OVC100
     FM211000 VRB05KT P6SM -RA SCT025 BKN035=



000
FTUS41 KOKX 200800 AAA
TAFTEB
TAF AMD
KTEB 200831Z 2009/2106 VRB02KT P6SM BKN220
     FM201400 23006KT P6SM BKN200
     FM202000 21008KT P6SM FEW035 OVC150
     FM210000 21004KT P6SM SCT035 OVC120=



000
FTUS41 KOKX 200800 AAA
TAFSWF
TAF AMD
KSWF 200831Z 2009/2112 VRB02KT P6SM BKN220
     FM201400 25005KT P6SM BKN200
     FM201700 24008KT P6SM FEW040 BKN150
     FM202000 22006KT P6SM SCT035 OVC100
     FM210000 VRB03KT P6SM SCT035 OVC120
     FM210500 VRB03KT P6SM -RA BKN035 OVC100
     FM211000 VRB03KT P6SM -RA SCT025 BKN035
      AMD NOT SKED=



000
FTUS41 KOKX 200500
TAFEWR
TAF
KEWR 200523Z 2006/2112 27005KT P6SM BKN220
     FM201400 23008KT P6SM BKN200
     FM202000 21010KT P6SM FEW040 OVC150
     FM210000 21006KT P6SM SCT035 OVC120
     FM210600 21005KT P6SM -RA BKN035 OVC100
     FM211000 VRB05KT P6SM -RA SCT025 BKN035=



000
FTUS41 KOKX 200500
TAFBDR
TAF
KBDR 200523Z 2006/2106 VRB03KT P6SM BKN220
     FM201400 24008KT P6SM BKN200
     FM202000 22008KT P6SM FEW040 OVC150
     FM210000 21006KT P6SM SCT035 OVC120=



000
FTUS41 KOKX 200500
TAFJFK
TAF
KJFK 200523Z 2006/2112 28006KT P6SM BKN220
     FM201400 22010KT P6SM BKN200
     FM202000 20012KT P6SM FEW035 OVC150
     FM210000 20009KT P6SM SCT035 OVC120
     FM210600 20006KT P6SM -RA BKN035 OVC100
     FM211000 VRB05KT P6SM -RA SCT025 BKN035=



000
FTUS41 KOKX 200500
TAFISP
TAF
KISP 200523Z 2006/2106 VRB04KT P6SM BKN220
     FM201400 24008KT P6SM BKN200
     FM202000 21009KT P6SM FEW035 OVC150
     FM210000 20006KT P6SM SCT035 OVC120
     FM210500 20005KT P6SM FEW025 SCT035 BKN120=



000
FTUS41 KOKX 200500
TAFLGA
TAF
KLGA 200523Z 2006/2106 28007KT P6SM BKN220
     FM201400 24009KT P6SM BKN200
     FM202000 21011KT P6SM FEW040 OVC150
     FM210000 20008KT P6SM SCT035 OVC120=



000
FTUS41 KOKX 200500
TAFTEB
TAF
KTEB 200523Z 2006/2106 VRB02KT P6SM BKN220
     FM201400 23006KT P6SM BKN200
     FM202000 21008KT P6SM FEW035 OVC150
     FM210000 21004KT P6SM SCT035 OVC120=



000
FTUS41 KOKX 200500
TAFSWF
TAF
KSWF 200523Z 2006/2112 VRB02KT P6SM BKN220
     FM201400 25005KT P6SM BKN200
     FM201700 24008KT P6SM FEW040 BKN150
     FM202000 22006KT P6SM SCT035 OVC100
     FM210000 VRB03KT P6SM SCT035 OVC120
     FM210500 VRB03KT P6SM -RA BKN035 OVC100
     FM211000 VRB03KT P6SM -RA SCT025 BKN035
      AMD NOT SKED=



000
FTUS41 KOKX 200500
TAFGON
TAF
KGON 200523Z 2006/2106 29005KT P6SM BKN220
     FM201600 23009KT P6SM SCT120 BKN200
     FM202100 22008KT P6SM OVC150
     FM210000 21005KT P6SM SCT035 OVC120
     FM210500 20005KT P6SM FEW025 BKN035=



000
FTUS41 KOKX 200200 AAA
TAFJFK
TAF AMD
KJFK 200230Z 2003/2106 32009KT P6SM FEW220
     FM200600 28006KT P6SM SCT220
     FM201400 22010KT P6SM BKN120
     FM202000 20012KT P6SM SCT035 OVC120
     FM210300 21008KT P6SM -RA BKN035 OVC100=



000
FTUS41 KOKX 200200 AAA
TAFBDR
TAF AMD
KBDR 200230Z 2003/2024 VRB03KT P6SM SCT220
     FM201400 24008KT P6SM BKN120
     FM202000 21008KT P6SM FEW040 OVC120=



000
FTUS41 KOKX 200200 AAA
TAFISP
TAF AMD
KISP 200230Z 2003/2024 33008KT P6SM FEW220
     FM200600 VRB04KT P6SM SCT220
     FM201400 24008KT P6SM BKN120
     FM202000 21009KT P6SM FEW035 OVC120=



000
FTUS41 KOKX 200200 AAA
TAFLGA
TAF AMD
KLGA 200230Z 2003/2024 32011KT P6SM FEW220
     FM200600 28007KT P6SM SCT220
     FM201400 24009KT P6SM BKN120
     FM202000 21011KT P6SM SCT040 OVC120=



000
FTUS41 KOKX 200200 AAA
TAFTEB
TAF AMD
KTEB 200230Z 2003/2024 31006KT P6SM FEW220
     FM200600 VRB02KT P6SM SCT220
     FM201400 23007KT P6SM BKN120
     FM202000 21009KT P6SM SCT035 OVC120=



000
FTUS41 KOKX 200200 AAA
TAFEWR
TAF AMD
KEWR 200230Z 2003/2106 31007KT P6SM FEW220
     FM200600 27005KT P6SM SCT220
     FM201400 23008KT P6SM BKN120
     FM202000 21010KT P6SM SCT040 OVC120
     FM210300 22006KT P6SM -RA BKN040 OVC080=



000
FTUS41 KOKX 200200 AAA
TAFGON
TAF AMD
KGON 200230Z 2003/2024 32007KT P6SM SKC
     FM200700 29005KT P6SM FEW220
     FM201600 24010KT P6SM SCT120 BKN220
     FM202200 22008KT P6SM OVC120=



000
FTUS41 KOKX 192300
TAFEWR
TAF
KEWR 192320Z 2000/2106 32011G20KT P6SM FEW220
     FM200100 32010KT P6SM FEW220
     FM200600 27005KT P6SM SCT220
     FM201400 23008KT P6SM BKN120
     FM202000 21010KT P6SM SCT040 OVC120
     FM210300 22006KT P6SM -RA BKN040 OVC080=



000
FTUS41 KOKX 192300
TAFGON
TAF
KGON 192320Z 2000/2024 32011G18KT P6SM SKC
     FM200100 32007KT P6SM SKC
     FM200700 29005KT P6SM FEW220
     FM201600 24010KT P6SM SCT120 BKN220
     FM202200 22008KT P6SM OVC120=



000
FTUS41 KOKX 192300
TAFTEB
TAF
KTEB 192320Z 2000/2024 32010G18KT P6SM FEW220
     FM200100 33006KT P6SM FEW220
     FM200600 VRB02KT P6SM SCT220
     FM201400 23007KT P6SM BKN120
     FM202000 21009KT P6SM SCT035 OVC120=



000
FTUS41 KOKX 192300
TAFLGA
TAF
KLGA 192320Z 2000/2024 32012G20KT P6SM FEW060 SCT220
     FM200100 32011KT P6SM FEW220
     FM200600 28007KT P6SM SCT220
     FM201400 24009KT P6SM BKN120
     FM202000 21011KT P6SM SCT040 OVC120=



000
FTUS41 KOKX 192300
TAFSWF
TAF
KSWF 192320Z 2000/2106 31007KT P6SM SCT220
     FM200400 VRB02KT P6SM SCT220
     FM201400 27006KT P6SM BKN120
     FM201700 24008KT P6SM FEW040 BKN100
     FM202000 22006KT P6SM SCT035 OVC100
     FM210100 23006KT P6SM -RA BKN035 OVC080
      AMD NOT SKED=



000
FTUS41 KOKX 192300
TAFJFK
TAF
KJFK 192320Z 2000/2106 32014G21KT P6SM FEW060 SCT220
     FM200100 32011KT P6SM FEW220
     FM200600 27006KT P6SM SCT220
     FM201400 22010KT P6SM BKN120
     FM202000 20012KT P6SM SCT035 OVC120
     FM210300 21008KT P6SM -RA BKN035 OVC100=



000
FTUS41 KOKX 192300
TAFBDR
TAF
KBDR 192320Z 2000/2024 33010KT P6SM FEW220
     FM200100 32007KT P6SM FEW220
     FM200600 VRB03KT P6SM SCT220
     FM201400 24008KT P6SM BKN120
     FM202000 21008KT P6SM FEW040 OVC120=



000
FTUS41 KOKX 192300
TAFISP
TAF
KISP 192320Z 2000/2024 32012KT P6SM FEW060 SCT220
     FM200100 32008KT P6SM FEW220
     FM200600 VRB04KT P6SM SCT220
     FM201400 24008KT P6SM BKN120
     FM202000 21009KT P6SM FEW035 OVC120=



000
FTUS41 KOKX 192300
TAFLGA
TAF
KLGA 192320Z 2000/2024 32012G20KT P6SM FEW060 SCT220
     FM200100 32011KT P6SM FEW220
     FM200600 28007KT P6SM SCT220
     FM201400 24009KT P6SM BKN120
     FM202000 21011KT P6SM SCT040 OVC120=



000
FTUS41 KOKX 192300
TAFTEB
TAF
KTEB 192320Z 2000/2024 32010G18KT P6SM FEW220
     FM200100 33006KT P6SM FEW220
     FM200600 VRB02KT P6SM SCT220
     FM201400 23007KT P6SM BKN120
     FM202000 21009KT P6SM SCT035 OVC120=



000
FTUS41 KOKX 192300
TAFGON
TAF
KGON 192320Z 2000/2024 32011G18KT P6SM SKC
     FM200100 32007KT P6SM SKC
     FM200700 29005KT P6SM FEW220
     FM201600 24010KT P6SM SCT120 BKN220
     FM202200 22008KT P6SM OVC120=



000
FTUS41 KOKX 192300
TAFEWR
TAF
KEWR 192320Z 2000/2106 32011G20KT P6SM FEW220
     FM200100 32010KT P6SM FEW220
     FM200600 27005KT P6SM SCT220
     FM201400 23008KT P6SM BKN120
     FM202000 21010KT P6SM SCT040 OVC120
     FM210300 22006KT P6SM -RA BKN040 OVC080=



000
FTUS41 KOKX 192300
TAFISP
TAF
KISP 192320Z 2000/2024 32012KT P6SM FEW060 SCT220
     FM200100 32008KT P6SM FEW220
     FM200600 VRB04KT P6SM SCT220
     FM201400 24008KT P6SM BKN120
     FM202000 21009KT P6SM FEW035 OVC120=



000
FTUS41 KOKX 192300
TAFBDR
TAF
KBDR 192320Z 2000/2024 33010KT P6SM FEW220
     FM200100 32007KT P6SM FEW220
     FM200600 VRB03KT P6SM SCT220
     FM201400 24008KT P6SM BKN120
     FM202000 21008KT P6SM FEW040 OVC120=



000
FTUS41 KOKX 192300
TAFJFK
TAF
KJFK 192320Z 2000/2106 32014G21KT P6SM FEW060 SCT220
     FM200100 32011KT P6SM FEW220
     FM200600 27006KT P6SM SCT220
     FM201400 22010KT P6SM BKN120
     FM202000 20012KT P6SM SCT035 OVC120
     FM210300 21008KT P6SM -RA BKN035 OVC100=



000
FTUS41 KOKX 192300
TAFSWF
TAF
KSWF 192320Z 2000/2106 31007KT P6SM SCT220
     FM200400 VRB02KT P6SM SCT220
     FM201400 27006KT P6SM BKN120
     FM201700 24008KT P6SM FEW040 BKN100
     FM202000 22006KT P6SM SCT035 OVC100
     FM210100 23006KT P6SM -RA BKN035 OVC080
      AMD NOT SKED=



000
FTUS41 KOKX 192200 AAB
TAFGON
TAF AMD
KGON 192209Z 1922/2018 32013G20KT P6SM BKN060
     FM192300 32012KT P6SM FEW060
     FM200200 32008KT P6SM SKC
     FM200500 30005KT P6SM FEW220
     FM201400 26008KT P6SM BKN120=



000
FTUS41 KOKX 192100 AAB
TAFSWF
TAF AMD
KSWF 192109Z 1921/2024 34012G18KT P6SM FEW050
     FM200000 30008KT P6SM SKC
     FM200300 VRB03KT P6SM SKC
     FM201400 26008KT P6SM BKN150
      AMD NOT SKED=



000
FTUS41 KOKX 192100 AAB
TAFISP
TAF AMD
KISP 192108Z 1921/2018 31015G22KT P6SM SCT050
     FM192300 32012KT P6SM FEW050
     FM200300 33008KT P6SM SKC
     FM200600 VRB04KT P6SM SKC
     FM201400 26008KT P6SM BKN150=



000
FTUS41 KOKX 191900 AAA
TAFEWR
TAF AMD
KEWR 191941Z 1920/2024 32018G28KT P6SM SCT040 BKN080
     FM192200 32013G23KT P6SM FEW080
     FM200200 32010KT P6SM SKC
     FM200600 28006KT P6SM SKC
     FM201400 23008KT P6SM BKN150
     FM202000 22010KT P6SM BKN150=



000
FTUS41 KOKX 191900 AAA
TAFLGA
TAF AMD
KLGA 191941Z 1920/2018 32020G29KT P6SM SCT040 BKN080
     FM192200 32015G23KT P6SM FEW080
     FM200200 32012KT P6SM SKC
     FM200600 29007KT P6SM SKC
     FM201400 24008KT P6SM BKN150=



000
FTUS41 KOKX 191900 AAA
TAFTEB
TAF AMD
KTEB 191941Z 1920/2018 33015G25KT P6SM SCT040 BKN080
     FM192200 32012G18KT P6SM FEW080
     FM200200 32008KT P6SM SKC
     FM200600 VRB03KT P6SM SKC
     FM201400 23008KT P6SM BKN150=



000
FTUS41 KOKX 191900 AAA
TAFJFK
TAF AMD
KJFK 191941Z 1920/2024 32020G29KT P6SM SCT040 BKN080
     FM192200 32015G23KT P6SM FEW080
     FM200200 32012KT P6SM SKC
     FM200600 28008KT P6SM SKC
     FM201400 22008KT P6SM BKN150
     FM202000 20012KT P6SM BKN150=



000
FTUS41 KOKX 191900 AAA
TAFISP
TAF AMD
KISP 191941Z 1920/2018 33016G26KT P6SM SCT040 BKN080
     FM192300 32012KT P6SM FEW080
     FM200300 33008KT P6SM SKC
     FM200600 VRB04KT P6SM SKC
     FM201400 26008KT P6SM BKN150=



000
FTUS41 KOKX 191900 AAA
TAFBDR
TAF AMD
KBDR 191941Z 1920/2018 33015G25KT P6SM SCT040 BKN080
     FM192300 32012KT P6SM FEW080
     FM200300 32007KT P6SM SKC
     FM200600 VRB04KT P6SM SKC
     FM201400 24008KT P6SM BKN150=



000
FTUS41 KOKX 191900 AAA
TAFGON
TAF AMD
KGON 191941Z 1920/2018 33016G26KT P6SM BKN040
     FM192300 32012KT P6SM FEW080
     FM200200 32008KT P6SM SKC
     FM200500 30005KT P6SM SKC
     FM201400 26008KT P6SM BKN150=



000
FTUS41 KOKX 191900 AAA
TAFSWF
TAF AMD
KSWF 191941Z 1920/2024 32016G26KT P6SM SCT050
     FM192200 32012G18KT P6SM FEW080
     FM200000 30008KT P6SM SKC
     FM200300 VRB03KT P6SM SKC
     FM201400 26008KT P6SM BKN150
      AMD NOT SKED=



000
FTUS41 KOKX 191700
TAFGON
TAF
KGON 191730Z 1918/2018 33016G26KT P6SM BKN040
     FM192300 32012KT P6SM FEW080
     FM200200 32008KT P6SM SKC
     FM200500 30005KT P6SM SKC
     FM201400 26008KT P6SM BKN150=



000
FTUS41 KOKX 191700
TAFBDR
TAF
KBDR 191730Z 1918/2018 33015G25KT P6SM SCT040 BKN080
      TEMPO 1918/1921 BKN040
     FM192300 32012KT P6SM FEW080
     FM200300 32007KT P6SM SKC
     FM200600 VRB04KT P6SM SKC
     FM201400 24008KT P6SM BKN150=



000
FTUS41 KOKX 191700
TAFTEB
TAF
KTEB 191730Z 1918/2018 33015G25KT P6SM SCT040 BKN080
      TEMPO 1918/1920 BKN040
     FM192200 32012G18KT P6SM FEW080
     FM200200 32008KT P6SM SKC
     FM200600 VRB03KT P6SM SKC
     FM201400 23008KT P6SM BKN150=



000
FTUS41 KOKX 191700
TAFISP
TAF
KISP 191730Z 1918/2018 33016G26KT P6SM SCT040 BKN080
      TEMPO 1918/1921 BKN040
     FM192300 32012KT P6SM FEW080
     FM200300 33008KT P6SM SKC
     FM200600 VRB04KT P6SM SKC
     FM201400 26008KT P6SM BKN150=



000
FTUS41 KOKX 191700
TAFJFK
TAF
KJFK 191730Z 1918/2024 32020G29KT P6SM SCT040 BKN080
      TEMPO 1918/1920 BKN040
     FM192200 32015G23KT P6SM FEW080
     FM200200 32012KT P6SM SKC
     FM200600 28008KT P6SM SKC
     FM201400 22008KT P6SM BKN150
     FM202000 20012KT P6SM BKN150=



000
FTUS41 KOKX 191700
TAFEWR
TAF
KEWR 191730Z 1918/2024 32016G26KT P6SM SCT040 BKN080
      TEMPO 1918/1920 BKN040
     FM192200 32013G23KT P6SM FEW080
     FM200200 32010KT P6SM SKC
     FM200600 28006KT P6SM SKC
     FM201400 23008KT P6SM BKN150
     FM202000 22010KT P6SM BKN150=



000
FTUS41 KOKX 191700
TAFLGA
TAF
KLGA 191730Z 1918/2018 32020G29KT P6SM SCT040 BKN080
      TEMPO 1918/1920 BKN040
     FM192200 32015G23KT P6SM FEW080
     FM200200 32012KT P6SM SKC
     FM200600 29007KT P6SM SKC
     FM201400 24008KT P6SM BKN150=



000
FTUS41 KOKX 191700
TAFSWF
TAF
KSWF 191730Z 1918/2024 32015G25KT P6SM BKN050
     FM192200 32012G18KT P6SM FEW080
     FM200000 30008KT P6SM SKC
     FM200300 VRB03KT P6SM SKC
     FM201400 26008KT P6SM BKN150
      AMD NOT SKED=



000
FTUS41 KOKX 191400 AAA
TAFBDR
TAF AMD
KBDR 191430Z 1915/2012 33013G22KT P6SM FEW035 BKN080
     FM191600 32017G25KT P6SM SCT045
      TEMPO 1917/1920 BKN045
     FM192200 32012G20KT P6SM FEW045
     FM200000 32008KT P6SM SKC
     FM200700 29004KT P6SM SCT200=



000
FTUS41 KOKX 191400 AAA
TAFSWF
TAF AMD
KSWF 191430Z 1915/2018 32014G22KT P6SM FEW035 BKN080
     FM191600 32017G25KT P6SM SCT045
      TEMPO 1917/1921 BKN045
     FM192200 32013G20KT P6SM SKC
     FM200000 32008KT P6SM SKC
     FM200300 30006KT P6SM SCT200
     FM200600 29004KT P6SM SCT150
     FM201400 25006KT P6SM BKN150
      AMD NOT SKED=



000
FTUS41 KOKX 191400 AAA
TAFLGA
TAF AMD
KLGA 191430Z 1915/2012 32019G25KT P6SM SCT040 BKN080
     FM191600 32019G27KT P6SM SCT045
      TEMPO 1917/1920 BKN045
     FM192200 31016G23KT P6SM FEW045
     FM200100 32013G20KT P6SM SKC
     FM200400 32010KT P6SM SKC
     FM200700 30007KT P6SM SCT200=



000
FTUS41 KOKX 191400 AAA
TAFGON
TAF AMD
KGON 191430Z 1915/2012 32013G19KT P6SM FEW045 BKN080
     FM191600 32016G24KT P6SM SCT045
      TEMPO 1918/1921 BKN045
     FM192200 32012G20KT P6SM SKC
     FM200000 32010KT P6SM SKC
     FM200300 32007KT P6SM SKC
     FM200700 30005KT P6SM SCT200=



000
FTUS41 KOKX 191400 AAA
TAFEWR
TAF AMD
KEWR 191430Z 1915/2018 32015G22KT P6SM FEW040 BKN080
     FM191600 31020G28KT P6SM SCT045
      TEMPO 1917/1920 BKN045
     FM192200 32015G22KT P6SM FEW045
     FM200100 32011G17KT P6SM SKC
     FM200300 32009KT P6SM SKC
     FM200600 29007KT P6SM SCT200
     FM201200 23006KT P6SM BKN150=



000
FTUS41 KOKX 191400 AAA
TAFTEB
TAF AMD
KTEB 191430Z 1915/2012 32011G20KT P6SM FEW050 BKN080
     FM191600 31017G25KT P6SM SCT045
      TEMPO 1917/1920 BKN045
     FM192200 32011G19KT P6SM FEW045
     FM200100 32008KT P6SM SKC
     FM200300 32005KT P6SM SKC
     FM200600 VRB03KT P6SM SCT200=



000
FTUS41 KOKX 191400 AAA
TAFJFK
TAF AMD
KJFK 191430Z 1915/2018 32019G26KT P6SM FEW040 BKN090
     FM191600 32021G29KT P6SM SCT045
      TEMPO 1917/1920 BKN045
     FM192200 32017G24KT P6SM FEW045
     FM200100 32013G20KT P6SM SKC
     FM200400 32010KT P6SM SKC
     FM200700 30007KT P6SM SCT200
     FM201400 22009KT P6SM BKN150=



000
FTUS41 KOKX 191400 AAA
TAFISP
TAF AMD
KISP 191430Z 1915/2012 35016G23KT P6SM FEW035 BKN070
     FM191700 33018G26KT P6SM SCT045
      TEMPO 1918/1920 BKN045
     FM192200 33012G20KT P6SM FEW045
     FM200000 33009KT P6SM SKC
     FM200300 33007KT P6SM SKC
     FM200700 29004KT P6SM SCT200=



000
FTUS41 KOKX 191100
TAFEWR
TAF
KEWR 191138Z 1912/2018 32015G22KT P6SM FEW040 BKN080
     FM191500 31020G28KT P6SM SCT045
      TEMPO 1917/1920 BKN045
     FM192200 32015G22KT P6SM FEW045
     FM200100 32011G17KT P6SM SKC
     FM200300 32009KT P6SM SKC
     FM200600 29007KT P6SM SCT200
     FM201200 23006KT P6SM BKN150=



000
FTUS41 KOKX 191100
TAFBDR
TAF
KBDR 191138Z 1912/2012 33013G22KT P6SM FEW035 BKN080
     FM191600 32017G25KT P6SM SCT045
      TEMPO 1917/1920 BKN045
     FM192200 32012G20KT P6SM FEW045
     FM200000 32008KT P6SM SKC
     FM200700 29004KT P6SM SCT200=



000
FTUS41 KOKX 191100
TAFSWF
TAF
KSWF 191138Z 1912/2018 30012KT P6SM SCT030 BKN080
     FM191400 32014G22KT P6SM FEW035 BKN080
     FM191600 32017G25KT P6SM SCT045
      TEMPO 1917/1921 BKN045
     FM192200 32013G20KT P6SM SKC
     FM200000 32008KT P6SM SKC
     FM200300 30006KT P6SM SCT200
     FM200600 29004KT P6SM SCT150
     FM201400 25006KT P6SM BKN150
      AMD NOT SKED=



000
FTUS41 KOKX 191100
TAFISP
TAF
KISP 191138Z 1912/2012 33013G19KT P6SM BKN035
     FM191400 32016G23KT P6SM FEW035 BKN070
     FM191600 32018G26KT P6SM SCT045
      TEMPO 1918/1920 BKN045
     FM192200 32012G20KT P6SM FEW045
     FM200000 33009KT P6SM SKC
     FM200300 33007KT P6SM SKC
     FM200700 29004KT P6SM SCT200=



000
FTUS41 KOKX 191100
TAFLGA
TAF
KLGA 191138Z 1912/2012 32019G25KT P6SM SCT040 BKN080
      TEMPO 1912/1913 BKN040
     FM191500 32019G27KT P6SM SCT045
      TEMPO 1917/1920 BKN045
     FM192200 31016G23KT P6SM FEW045
     FM200100 32013G20KT P6SM SKC
     FM200400 32010KT P6SM SKC
     FM200700 30007KT P6SM SCT200=



000
FTUS41 KOKX 191100
TAFTEB
TAF
KTEB 191138Z 1912/2012 32011G20KT P6SM FEW050 BKN080
      TEMPO 1912/1913 BKN040
     FM191500 31017G25KT P6SM SCT045
      TEMPO 1917/1920 BKN045
     FM192200 32011G19KT P6SM FEW045
     FM200100 32008KT P6SM SKC
     FM200300 32005KT P6SM SKC
     FM200600 VRB03KT P6SM SCT200=



000
FTUS41 KOKX 191100
TAFJFK
TAF
KJFK 191138Z 1912/2018 32019G26KT P6SM FEW040 BKN090
      TEMPO 1912/1913 BKN040
     FM191500 32021G29KT P6SM SCT045
      TEMPO 1917/1920 BKN045
     FM192200 32017G24KT P6SM FEW045
     FM200100 32013G20KT P6SM SKC
     FM200400 32010KT P6SM SKC
     FM200700 30007KT P6SM SCT200
     FM201400 22009KT P6SM BKN150=



000
FTUS41 KOKX 191100
TAFGON
TAF
KGON 191138Z 1912/2012 32013G19KT P6SM FEW045 BKN080
     FM191600 32016G24KT P6SM SCT045
      TEMPO 1918/1921 BKN045
     FM192200 32012G20KT P6SM SKC
     FM200000 32010KT P6SM SKC
     FM200300 32007KT P6SM SKC
     FM200700 30005KT P6SM SCT200=



000
FTUS41 KOKX 190800 AAA
TAFLGA
TAF AMD
KLGA 190836Z 1909/2006 30014G22KT P6SM FEW040 BKN080
     FM191300 32016G25KT P6SM FEW035 BKN070
     FM191500 32018G26KT P6SM SCT045
      TEMPO 1917/1920 BKN045
     FM192200 31017G25KT P6SM FEW045
     FM200100 32013G20KT P6SM SKC
     FM200400 32010KT P6SM SKC=



000
FTUS41 KOKX 190800 AAA
TAFISP
TAF AMD
KISP 190836Z 1909/2006 30008KT P6SM FEW035 BKN080
     FM191400 32015G22KT P6SM FEW035 BKN070
     FM191600 32018G25KT P6SM SCT045
      TEMPO 1918/1920 BKN045
     FM192200 32011G19KT P6SM FEW045
     FM200000 33009KT P6SM SKC
     FM200300 33007KT P6SM SKC=



000
FTUS41 KOKX 190800 AAA
TAFEWR
TAF AMD
KEWR 190836Z 1909/2012 31013G22KT P6SM FEW040 BKN080
     FM191300 31016G24KT P6SM FEW035 BKN070
     FM191500 31018G26KT P6SM SCT045
      TEMPO 1917/1920 BKN045
     FM192200 31014G22KT P6SM FEW045
     FM200100 31010G16KT P6SM SKC
     FM200300 30007KT P6SM SKC
     FM200600 28005KT P6SM SCT200=



000
FTUS41 KOKX 190800 AAA
TAFBDR
TAF AMD
KBDR 190836Z 1909/2006 32008KT P6SM SCT040 BKN070
     FM191400 31014G21KT P6SM FEW035 BKN070
     FM191600 31016G24KT P6SM SCT045
      TEMPO 1917/1920 BKN045
     FM192200 31012G19KT P6SM FEW045
     FM200000 31009KT P6SM SKC
     FM200300 31007KT P6SM SKC=



000
FTUS41 KOKX 190800 AAA
TAFTEB
TAF AMD
KTEB 190836Z 1909/2006 31010G18KT P6SM BKN080
     FM191300 32015G22KT P6SM FEW035 BKN070
     FM191500 31017G24KT P6SM SCT045
      TEMPO 1917/1920 BKN045
     FM192200 32011G19KT P6SM FEW045
     FM200100 32007KT P6SM SKC
     FM200300 32005KT P6SM SKC=



000
FTUS41 KOKX 190800 AAA
TAFGON
TAF AMD
KGON 190836Z 1909/2006 31010KT P6SM FEW045 BKN080
     FM191400 33014G21KT P6SM FEW035 BKN090
     FM191700 32016G24KT P6SM SCT045
      TEMPO 1918/1921 BKN045
     FM192200 32012G19KT P6SM SKC
     FM200000 33010KT P6SM SKC
     FM200300 32007KT P6SM SKC=



000
FTUS41 KOKX 190800 AAA
TAFJFK
TAF AMD
KJFK 190836Z 1909/2012 30013G19KT P6SM FEW040 BKN080
     FM191300 32017G24KT P6SM FEW035 BKN070
     FM191500 32020G28KT P6SM SCT045
      TEMPO 1917/1920 BKN045
     FM192200 32018G25KT P6SM FEW045
     FM200100 32014G20KT P6SM SKC
     FM200400 32011KT P6SM SKC
     FM200700 30007KT P6SM SCT200=



000
FTUS41 KOKX 190500 RRA
TAFGON
TAF
KGON 190549Z 1906/2006 29006KT P6SM BKN080
     FM191100 32009KT P6SM BKN070
     FM191300 33013G20KT P6SM FEW035 BKN090
     FM191700 32016G24KT P6SM SCT045
      TEMPO 1918/1921 BKN045
     FM192200 32012G19KT P6SM SKC
     FM200000 33010KT P6SM SKC
     FM200300 32007KT P6SM SKC=



000
FTUS41 KOKX 190500 RRA
TAFSWF
TAF
KSWF 190546Z 1906/2012 30011KT P6SM BKN030
     FM191000 30013KT P6SM SCT030 BKN080
     FM191300 32017G25KT P6SM FEW035 BKN090
     FM191500 32017G25KT P6SM SCT045
      TEMPO 1917/1921 BKN045
     FM192200 32013G20KT P6SM SKC
     FM200000 31008KT P6SM SKC
     FM200400 30005KT P6SM SCT200
     FM200600 VRB03KT P6SM SCT150
      AMD NOT SKED=



000
FTUS41 KOKX 190500
TAFJFK
TAF
KJFK 190539Z 1906/2012 30013G19KT P6SM BKN080
     FM191000 32015G24KT P6SM BKN060
     FM191300 32019G26KT P6SM FEW035 BKN070
     FM191500 32021G28KT P6SM SCT045
      TEMPO 1917/1920 BKN045
     FM192200 32018G25KT P6SM FEW045
     FM200100 32014G20KT P6SM SKC
     FM200400 32011KT P6SM SKC
     FM200700 30007KT P6SM SCT200=



000
FTUS41 KOKX 190500
TAFLGA
TAF
KLGA 190539Z 1906/2006 30011G19KT P6SM BKN080
     FM191000 31014G23KT P6SM BKN060
     FM191300 32018G26KT P6SM FEW035 BKN070
     FM191500 32018G27KT P6SM SCT045
      TEMPO 1917/1920 BKN045
     FM192200 31017G25KT P6SM FEW045
     FM200100 32013G20KT P6SM SKC
     FM200400 32010KT P6SM SKC=



000
FTUS41 KOKX 190500
TAFTEB
TAF
KTEB 190539Z 1906/2006 29007KT P6SM BKN080
     FM191000 31010KT P6SM BKN060
     FM191300 32015G22KT P6SM FEW035 BKN070
     FM191500 31016G24KT P6SM SCT045
      TEMPO 1917/1920 BKN045
     FM192200 32011G19KT P6SM FEW045
     FM200100 32007KT P6SM SKC
     FM200300 32005KT P6SM SKC=



000
FTUS41 KOKX 190500
TAFISP
TAF
KISP 190539Z 1906/2006 30010KT P6SM BKN080
     FM191100 32012KT P6SM BKN060
     FM191400 32017G24KT P6SM FEW035 BKN070
     FM191600 32018G25KT P6SM SCT045
      TEMPO 1918/1920 BKN045
     FM192200 32011G19KT P6SM FEW045
     FM200000 33009KT P6SM SKC
     FM200300 33007KT P6SM SKC=



000
FTUS41 KOKX 190500
TAFBDR
TAF
KBDR 190539Z 1906/2006 29007KT P6SM BKN080
     FM191100 32010KT P6SM BKN060
     FM191400 32015G22KT P6SM FEW035 BKN070
     FM191600 32016G23KT P6SM SCT045
      TEMPO 1917/1920 BKN045
     FM192200 31012G19KT P6SM FEW045
     FM200000 31009KT P6SM SKC
     FM200300 31007KT P6SM SKC=



000
FTUS41 KOKX 190500
TAFEWR
TAF
KEWR 190539Z 1906/2012 29007KT P6SM BKN080
     FM191000 31010KT P6SM BKN060
     FM191300 31016G23KT P6SM FEW035 BKN070
     FM191500 31018G25KT P6SM SCT045
      TEMPO 1917/1920 BKN045
     FM192200 31014G22KT P6SM FEW045
     FM200100 31010G16KT P6SM SKC
     FM200300 30007KT P6SM SKC
     FM200600 28005KT P6SM SCT200=



000
FTUS41 KOKX 190200 AAA
TAFGON
TAF AMD
KGON 190239Z 1903/1924 30008KT P6SM SCT050 BKN080
     FM191000 32010G18KT P6SM SCT035 BKN080
     FM191600 32016G24KT P6SM SCT040
     FM192300 32010KT P6SM SCT045=



000
FTUS41 KOKX 190200 AAA
TAFTEB
TAF AMD
KTEB 190239Z 1903/1924 30012G19KT P6SM SCT050 BKN080
     FM191500 32016G25KT P6SM BKN040
     FM192100 32011G19KT P6SM SCT045=



000
FTUS41 KOKX 190200 AAA
TAFLGA
TAF AMD
KLGA 190239Z 1903/1924 30014KT P6SM SCT050 BKN080
     FM190700 31016G24KT P6SM FEW035 BKN080
     FM191600 32018G26KT P6SM BKN040
     FM192100 32017G25KT P6SM SCT045=



000
FTUS41 KOKX 190200 AAA
TAFBDR
TAF AMD
KBDR 190239Z 1903/1924 29011KT P6SM SCT050 BKN080
     FM190900 31012G19KT P6SM FEW035 BKN080
     FM191500 32017G25KT P6SM SCT040
     FM192100 32013G20KT P6SM SCT045=



000
FTUS41 KOKX 190200 AAA
TAFJFK
TAF AMD
KJFK 190239Z 1903/2006 30014KT P6SM SCT050 BKN080
     FM190700 31015G24KT P6SM FEW035 BKN080
     FM191600 32019G27KT P6SM BKN040
     FM192100 32018G26KT P6SM SCT045
     FM200200 32011KT P6SM FEW250=



000
FTUS41 KOKX 190200 AAA
TAFGON
TAF AMD
KGON 190239Z 1903/1924 30008KT P6SM SCT050 BKN080
     FM191000 32010G18KT P6SM SCT035 BKN080
     FM191600 32016G24KT P6SM SCT040
     FM192300 32010KT P6SM SCT045=



000
FTUS41 KOKX 190200 AAA
TAFEWR
TAF AMD
KEWR 190239Z 1903/2006 30013G20KT P6SM SCT050 BKN080
     FM190800 31014G22KT P6SM FEW035 BKN080
     FM191600 32018G26KT P6SM BKN040
     FM192100 32017G25KT P6SM SCT045
     FM200100 32010KT P6SM FEW250=



000
FTUS41 KOKX 190200 AAA
TAFJFK
TAF AMD
KJFK 190239Z 1903/2006 30014KT P6SM SCT050 BKN080
     FM190700 31015G24KT P6SM FEW035 BKN080
     FM191600 32019G27KT P6SM BKN040
     FM192100 32018G26KT P6SM SCT045
     FM200200 32011KT P6SM FEW250=



000
FTUS41 KOKX 190200 AAA
TAFSWF
TAF AMD
KSWF 190239Z 1903/2006 30008KT P6SM BKN060
     FM190600 30013G20KT P6SM SCT030 BKN080
     FM191400 31018G26KT P6SM BKN040
     FM192300 31010KT P6SM BKN040
     FM200100 30005KT P6SM FEW040
      AMD NOT SKED=



000
FTUS41 KOKX 190200 AAA
TAFLGA
TAF AMD
KLGA 190239Z 1903/1924 30014KT P6SM SCT050 BKN080
     FM190700 31016G24KT P6SM FEW035 BKN080
     FM191600 32018G26KT P6SM BKN040
     FM192100 32017G25KT P6SM SCT045=



000
FTUS41 KOKX 190200 AAA
TAFISP
TAF AMD
KISP 190239Z 1903/1924 30011KT P6SM SCT050 BKN080
     FM190900 31013G20KT P6SM FEW035 BKN080
     FM191500 32017G25KT P6SM SCT040
     FM192100 32014G21KT P6SM SCT045=



000
FTUS41 KOKX 190200 AAA
TAFISP
TAF AMD
KISP 190239Z 1903/1924 30011KT P6SM SCT050 BKN080
     FM190900 31013G20KT P6SM FEW035 BKN080
     FM191500 32017G25KT P6SM SCT040
     FM192100 32014G21KT P6SM SCT045=



000
FTUS41 KOKX 190200 AAA
TAFEWR
TAF AMD
KEWR 190239Z 1903/2006 30013G20KT P6SM SCT050 BKN080
     FM190800 31014G22KT P6SM FEW035 BKN080
     FM191600 32018G26KT P6SM BKN040
     FM192100 32017G25KT P6SM SCT045
     FM200100 32010KT P6SM FEW250=



000
FTUS41 KOKX 190200 AAA
TAFTEB
TAF AMD
KTEB 190239Z 1903/1924 30012G19KT P6SM SCT050 BKN080
     FM191500 32016G25KT P6SM BKN040
     FM192100 32011G19KT P6SM SCT045=



000
FTUS41 KOKX 190200 AAA
TAFBDR
TAF AMD
KBDR 190239Z 1903/1924 29011KT P6SM SCT050 BKN080
     FM190900 31012G19KT P6SM FEW035 BKN080
     FM191500 32017G25KT P6SM SCT040
     FM192100 32013G20KT P6SM SCT045=



000
FTUS41 KOKX 190200 AAA
TAFSWF
TAF AMD
KSWF 190239Z 1903/2006 30008KT P6SM BKN060
     FM190600 30013G20KT P6SM SCT030 BKN080
     FM191400 31018G26KT P6SM BKN040
     FM192300 31010KT P6SM BKN040
     FM200100 30005KT P6SM FEW040
      AMD NOT SKED=



000
FTUS41 KOKX 182300
TAFGON
TAF
KGON 182339Z 1900/1924 31008KT P6SM SCT050 BKN080
     FM191000 32010G18KT P6SM SCT035 BKN080
     FM191600 32016G24KT P6SM SCT040
     FM192300 32010KT P6SM SCT045=



000
FTUS41 KOKX 182300
TAFBDR
TAF
KBDR 182339Z 1900/1924 29011KT P6SM SCT050 BKN080
     FM190900 31012G19KT P6SM FEW035 BKN080
     FM191500 32017G25KT P6SM SCT040
     FM192100 32013G20KT P6SM SCT045=



000
FTUS41 KOKX 182300
TAFISP
TAF
KISP 182339Z 1900/1924 31011KT P6SM SCT050 BKN080
     FM190900 31013G20KT P6SM FEW035 BKN080
     FM191500 32017G25KT P6SM SCT040
     FM192100 32014G21KT P6SM SCT045=



000
FTUS41 KOKX 182300
TAFLGA
TAF
KLGA 182339Z 1900/1924 30014G22KT P6SM SCT050 BKN080
     FM190700 31016G24KT P6SM FEW035 BKN080
     FM191600 32018G26KT P6SM BKN040
     FM192100 32017G25KT P6SM SCT045=



000
FTUS41 KOKX 182300
TAFTEB
TAF
KTEB 182339Z 1900/1924 30012G19KT P6SM SCT050 BKN080
     FM191500 32016G25KT P6SM BKN040
     FM192100 32011G19KT P6SM SCT045=



000
FTUS41 KOKX 182300
TAFEWR
TAF
KEWR 182339Z 1900/2006 30013G20KT P6SM SCT050 BKN080
     FM190800 31014G22KT P6SM FEW035 BKN080
     FM191600 32018G26KT P6SM BKN040
     FM192100 32017G25KT P6SM SCT045
     FM200100 32010KT P6SM FEW250=



000
FTUS41 KOKX 182300
TAFJFK
TAF
KJFK 182339Z 1900/2006 30014G22KT P6SM SCT050 BKN080
     FM190700 31015G24KT P6SM FEW035 BKN080
     FM191600 32019G27KT P6SM BKN040
     FM192100 32018G26KT P6SM SCT045
     FM200200 32011KT P6SM FEW250=



000
FTUS41 KOKX 182300
TAFSWF
TAF
KSWF 182339Z 1900/2006 30008KT P6SM BKN060
     FM190600 30013G20KT P6SM SCT030 BKN080
     FM191400 31018G26KT P6SM BKN040
     FM192300 31010KT P6SM BKN040
     FM200100 30005KT P6SM FEW040
      AMD NOT SKED=



000
FTUS41 KOKX 182100 AAC
TAFGON
TAF AMD
KGON 182108Z 1821/1918 27009KT P6SM VCSH SCT050 BKN090
      TEMPO 1821/1822 32012G20KT
     FM182300 27008KT P6SM BKN080
     FM190700 31008KT P6SM BKN080
     FM191200 32010G18KT P6SM SCT035 BKN080
     FM191600 32016G24KT P6SM SCT050=



000
FTUS41 KOKX 182100 AAB
TAFISP
TAF AMD
KISP 182101Z 1821/1918 28010G18KT P6SM SCT050 BKN090
      TEMPO 1821/1822 32012G20KT
     FM190100 29009G15KT P6SM BKN080
     FM190700 31011G18KT P6SM FEW045 BKN080
     FM191400 32018G26KT P6SM SCT050=



000
FTUS41 KOKX 181900 AAB
TAFTEB
TAF AMD
KTEB 181942Z 1820/1918 27010G17KT P6SM BKN080
     FM190100 29008KT P6SM SCT050 BKN080
     FM190800 30011G19KT P6SM FEW035 BKN080
     FM191500 31016G25KT P6SM SCT050=



000
FTUS41 KOKX 181900 AAB
TAFBDR
TAF AMD
KBDR 181942Z 1820/1918 24010KT P6SM BKN090
     FM182000 27010G18KT P6SM BKN050
     FM190100 29008KT P6SM BKN080
     FM191200 30012G19KT P6SM FEW045 BKN080
     FM191500 31017G25KT P6SM SCT050=



000
FTUS41 KOKX 181900 AAB
TAFEWR
TAF AMD
KEWR 181942Z 1820/1924 27011G18KT P6SM SCT050 BKN080
     FM190400 29012G21KT P6SM FEW040 BKN080
     FM191400 31020G28KT P6SM SCT050=



000
FTUS41 KOKX 181900 AAB
TAFGON
TAF AMD
KGON 181942Z 1820/1918 24009KT P6SM BKN100
     FM182300 27008KT P6SM BKN080
     FM190700 31008KT P6SM BKN080
     FM191200 32010G18KT P6SM SCT035 BKN080
     FM191600 32016G24KT P6SM SCT050=



000
FTUS41 KOKX 181900 AAA
TAFLGA
TAF AMD
KLGA 181942Z 1820/1918 28013G21KT P6SM FEW050 BKN080
     FM190300 30012G19KT P6SM FEW050 BKN080
     FM190700 31016G24KT P6SM FEW040 BKN080
     FM191600 32020G29KT P6SM SCT050=



000
FTUS41 KOKX 181900 AAA
TAFISP
TAF AMD
KISP 181942Z 1820/1918 27010G18KT P6SM SCT045 BKN090
     FM190100 29009G15KT P6SM BKN080
     FM190700 31011G18KT P6SM FEW045 BKN080
     FM191400 32018G26KT P6SM SCT050=



000
FTUS41 KOKX 181900 AAA
TAFJFK
TAF AMD
KJFK 181942Z 1820/1924 27014G22KT P6SM FEW045 BKN080
     FM182300 29014G22KT P6SM FEW040 BKN080
     FM190700 31015G24KT P6SM BKN080
     FM191600 32020G29KT P6SM SCT050=



000
FTUS41 KOKX 181900 AAB
TAFBDR
TAF AMD
KBDR 181942Z 1820/1918 24010KT P6SM BKN090
     FM182000 27010G18KT P6SM BKN050
     FM190100 29008KT P6SM BKN080
     FM191200 30012G19KT P6SM FEW045 BKN080
     FM191500 31017G25KT P6SM SCT050=



000
FTUS41 KOKX 181900 AAB
TAFTEB
TAF AMD
KTEB 181942Z 1820/1918 27010G17KT P6SM BKN080
     FM190100 29008KT P6SM SCT050 BKN080
     FM190800 30011G19KT P6SM FEW035 BKN080
     FM191500 31016G25KT P6SM SCT050=



000
FTUS41 KOKX 181900 AAB
TAFGON
TAF AMD
KGON 181942Z 1820/1918 24009KT P6SM BKN100
     FM182300 27008KT P6SM BKN080
     FM190700 31008KT P6SM BKN080
     FM191200 32010G18KT P6SM SCT035 BKN080
     FM191600 32016G24KT P6SM SCT050=



000
FTUS41 KOKX 181900 AAB
TAFEWR
TAF AMD
KEWR 181942Z 1820/1924 27011G18KT P6SM SCT050 BKN080
     FM190400 29012G21KT P6SM FEW040 BKN080
     FM191400 31020G28KT P6SM SCT050=



000
FTUS41 KOKX 181900 AAA
TAFLGA
TAF AMD
KLGA 181942Z 1820/1918 28013G21KT P6SM FEW050 BKN080
     FM190300 30012G19KT P6SM FEW050 BKN080
     FM190700 31016G24KT P6SM FEW040 BKN080
     FM191600 32020G29KT P6SM SCT050=



000
FTUS41 KOKX 181900 AAA
TAFISP
TAF AMD
KISP 181942Z 1820/1918 27010G18KT P6SM SCT045 BKN090
     FM190100 29009G15KT P6SM BKN080
     FM190700 31011G18KT P6SM FEW045 BKN080
     FM191400 32018G26KT P6SM SCT050=



000
FTUS41 KOKX 181900 AAA
TAFJFK
TAF AMD
KJFK 181942Z 1820/1924 27014G22KT P6SM FEW045 BKN080
     FM182300 29014G22KT P6SM FEW040 BKN080
     FM190700 31015G24KT P6SM BKN080
     FM191600 32020G29KT P6SM SCT050=



000
FTUS41 KOKX 181900 AAA
TAFEWR
TAF AMD
KEWR 181912Z 1819/1924 27012G19KT P6SM SCT060 BKN100
     FM190400 29014G23KT P6SM FEW040 BKN080
     FM191500 31020G28KT P6SM SCT050=



000
FTUS41 KOKX 181900 AAA
TAFTEB
TAF AMD
KTEB 181912Z 1819/1918 27010G17KT P6SM BKN090
     FM190100 29008KT P6SM SCT050 BKN080
     FM190800 30011G19KT P6SM FEW035 BKN080
     FM191500 31016G25KT P6SM SCT050=



000
FTUS41 KOKX 181900 AAA
TAFBDR
TAF AMD
KBDR 181911Z 1819/1918 24010KT P6SM BKN090
     FM182000 27010G18KT P6SM BKN050
     FM190100 29008KT P6SM BKN080
     FM191200 30012G19KT P6SM FEW045 BKN080
     FM191500 31017G25KT P6SM SCT050=



000
FTUS41 KOKX 181900 AAA
TAFGON
TAF AMD
KGON 181910Z 1819/1918 24009KT P6SM BKN100
     FM182300 27008KT P6SM BKN080
     FM190700 31008KT P6SM BKN080
     FM191200 32010G18KT P6SM SCT035 BKN080
     FM191600 32016G24KT P6SM SCT050=



000
FTUS41 KOKX 181700
TAFJFK
TAF
KJFK 181720Z 1818/1924 27014G22KT P6SM SCT060 BKN080
     FM182300 29014G22KT P6SM SCT040 BKN080
     FM190700 31015G24KT P6SM FEW040 BKN080
     FM191600 32020G29KT P6SM SCT050=



000
FTUS41 KOKX 181700
TAFISP
TAF
KISP 181720Z 1818/1918 27010G18KT P6SM SCT060 BKN100
     FM190100 29009G15KT P6SM BKN080
     FM190700 31011G18KT P6SM FEW045 BKN080
     FM191400 32018G26KT P6SM SCT050=



000
FTUS41 KOKX 181700
TAFSWF
TAF
KSWF 181720Z 1818/1924 27009KT P6SM BKN070
     FM182000 29010G18KT P6SM BKN070
     FM190200 30008KT P6SM BKN080
     FM190600 30013G20KT P6SM SCT035 BKN080
     FM191400 31018G26KT P6SM SCT045
      AMD NOT SKED=



000
FTUS41 KOKX 181700
TAFLGA
TAF
KLGA 181720Z 1818/1918 28013G21KT P6SM BKN100
     FM190300 30012G19KT P6SM SCT050 BKN080
     FM190700 31016G24KT P6SM FEW040 BKN080
     FM191600 32020G29KT P6SM SCT050=



000
FTUS41 KOKX 181700
TAFBDR
TAF
KBDR 181720Z 1818/1918 25010KT P6SM BKN090
     FM182000 27010G18KT P6SM BKN050
     FM190100 29008KT P6SM BKN080
     FM191200 30012G19KT P6SM FEW045 BKN080
     FM191500 31017G25KT P6SM SCT050=



000
FTUS41 KOKX 181700
TAFTEB
TAF
KTEB 181720Z 1818/1918 28011G19KT P6SM BKN090
     FM190100 29008KT P6SM SCT050 BKN080
     FM190800 30011G19KT P6SM FEW035 BKN080
     FM191500 31016G25KT P6SM SCT050=



000
FTUS41 KOKX 181700
TAFEWR
TAF
KEWR 181720Z 1818/1924 27014G21KT P6SM SCT060 BKN100
     FM190400 29014G23KT P6SM FEW040 BKN080
     FM191500 31020G28KT P6SM SCT050=



000
FTUS41 KOKX 181700
TAFGON
TAF
KGON 181720Z 1818/1918 24010KT P6SM BKN080
      TEMPO 1818/1820 BKN025
     FM182300 27008KT P6SM BKN080
     FM190700 31008KT P6SM BKN080
     FM191200 32010G18KT P6SM SCT035 BKN080
     FM191600 32016G24KT P6SM SCT050=



000
FTUS41 KOKX 181600 AAA
TAFSWF
TAF AMD
KSWF 181629Z 1816/1918 28009KT P6SM SCT030 BKN070
     FM181800 29013G20KT P6SM BKN040
     FM182300 29009G15KT P6SM BKN040
     FM190200 29009KT P6SM FEW035 SCT080
     FM190500 29011KT P6SM SCT035 BKN080
     FM190800 29014G23KT P6SM SCT035 BKN080
     FM191300 30019G26KT P6SM SCT045
      AMD NOT SKED=



000
FTUS41 KOKX 181600 AAC
TAFGON
TAF AMD
KGON 181628Z 1816/1912 21011KT P6SM SCT015 BKN120
      TEMPO 1816/1817 BKN015
     FM181700 24010KT P6SM BKN100
     FM181900 27012G20KT P6SM SCT035 BKN080
     FM182300 28009KT P6SM BKN060
     FM190200 29008KT P6SM BKN080
     FM190900 30010G18KT P6SM SCT035 BKN080=



000
FTUS41 KOKX 181400 AAA
TAFISP
TAF AMD
KISP 181433Z 1815/1912 25010KT P6SM SCT070 BKN110
     FM181700 27012G20KT P6SM BKN045
     FM182300 28010G18KT P6SM SCT045 BKN080
     FM190200 30009KT P6SM FEW045 BKN080
     FM191000 30012G21KT P6SM FEW035 BKN060=



000
FTUS41 KOKX 181400 AAA
TAFTEB
TAF AMD
KTEB 181433Z 1815/1912 24008KT P6SM BKN110
     FM181700 27012G20KT P6SM BKN050
     FM182300 28009G17KT P6SM SCT050 BKN080
     FM190200 29009KT P6SM FEW045 BKN080
     FM190800 30011G19KT P6SM FEW035 BKN060=



000
FTUS41 KOKX 181400 AAA
TAFEWR
TAF AMD
KEWR 181433Z 1815/1918 25009KT P6SM BKN100
     FM181700 27015G23KT P6SM BKN050
     FM182300 28012G20KT P6SM SCT050 BKN080
     FM190200 27012G18KT P6SM FEW045 BKN080
     FM190800 29013G23KT P6SM FEW035 BKN060
     FM191200 31020G29KT P6SM SCT050=



000
FTUS41 KOKX 181400 AAA
TAFBDR
TAF AMD
KBDR 181433Z 1815/1912 24010KT P6SM BKN120
     FM181800 27011G19KT P6SM BKN050
     FM182300 28009G17KT P6SM SCT050 BKN080
     FM190200 28008KT P6SM FEW045 BKN080
     FM191000 30010G18KT P6SM FEW035 BKN060=



000
FTUS41 KOKX 181400 AAB
TAFGON
TAF AMD
KGON 181433Z 1815/1912 21011KT P6SM SCT025 BKN090
     FM181700 24010KT P6SM BKN100
     FM181900 27012G20KT P6SM SCT035 BKN080
     FM182300 28009KT P6SM BKN060
     FM190200 29008KT P6SM BKN080
     FM190900 30010G18KT P6SM SCT035 BKN080=



000
FTUS41 KOKX 181400 AAA
TAFLGA
TAF AMD
KLGA 181433Z 1815/1912 25010KT P6SM FEW025 BKN110
     FM181700 27014G22KT P6SM BKN050
     FM182300 28013G21KT P6SM SCT050 BKN080
     FM190200 28012G18KT P6SM FEW045 BKN080
     FM190800 31016G25KT P6SM FEW035 BKN060=



000
FTUS41 KOKX 181400 AAA
TAFJFK
TAF AMD
KJFK 181433Z 1815/1918 25011KT P6SM FEW020 BKN110
     FM181700 27017G24KT P6SM BKN050
     FM182300 28015G23KT P6SM SCT050 BKN080
     FM190200 29014G20KT P6SM FEW045 BKN080
     FM190800 30015G24KT P6SM FEW035 BKN060
     FM191200 31019G28KT P6SM SCT050=



000
FTUS41 KOKX 181400 AAA
TAFJFK
TAF AMD
KJFK 181433Z 1815/1918 25011KT P6SM FEW020 BKN110
     FM181700 27017G24KT P6SM BKN050
     FM182300 28015G23KT P6SM SCT050 BKN080
     FM190200 29014G20KT P6SM FEW045 BKN080
     FM190800 30015G24KT P6SM FEW035 BKN060
     FM191200 31019G28KT P6SM SCT050=



000
FTUS41 KOKX 181400 AAA
TAFTEB
TAF AMD
KTEB 181433Z 1815/1912 24008KT P6SM BKN110
     FM181700 27012G20KT P6SM BKN050
     FM182300 28009G17KT P6SM SCT050 BKN080
     FM190200 29009KT P6SM FEW045 BKN080
     FM190800 30011G19KT P6SM FEW035 BKN060=



000
FTUS41 KOKX 181400 AAA
TAFISP
TAF AMD
KISP 181433Z 1815/1912 25010KT P6SM SCT070 BKN110
     FM181700 27012G20KT P6SM BKN045
     FM182300 28010G18KT P6SM SCT045 BKN080
     FM190200 30009KT P6SM FEW045 BKN080
     FM191000 30012G21KT P6SM FEW035 BKN060=



000
FTUS41 KOKX 181400 AAB
TAFGON
TAF AMD
KGON 181433Z 1815/1912 21011KT P6SM SCT025 BKN090
     FM181700 24010KT P6SM BKN100
     FM181900 27012G20KT P6SM SCT035 BKN080
     FM182300 28009KT P6SM BKN060
     FM190200 29008KT P6SM BKN080
     FM190900 30010G18KT P6SM SCT035 BKN080=



000
FTUS41 KOKX 181400 AAA
TAFBDR
TAF AMD
KBDR 181433Z 1815/1912 24010KT P6SM BKN120
     FM181800 27011G19KT P6SM BKN050
     FM182300 28009G17KT P6SM SCT050 BKN080
     FM190200 28008KT P6SM FEW045 BKN080
     FM191000 30010G18KT P6SM FEW035 BKN060=



000
FTUS41 KOKX 181400 AAA
TAFEWR
TAF AMD
KEWR 181433Z 1815/1918 25009KT P6SM BKN100
     FM181700 27015G23KT P6SM BKN050
     FM182300 28012G20KT P6SM SCT050 BKN080
     FM190200 27012G18KT P6SM FEW045 BKN080
     FM190800 29013G23KT P6SM FEW035 BKN060
     FM191200 31020G29KT P6SM SCT050=



000
FTUS41 KOKX 181400 AAA
TAFLGA
TAF AMD
KLGA 181433Z 1815/1912 25010KT P6SM FEW025 BKN110
     FM181700 27014G22KT P6SM BKN050
     FM182300 28013G21KT P6SM SCT050 BKN080
     FM190200 28012G18KT P6SM FEW045 BKN080
     FM190800 31016G25KT P6SM FEW035 BKN060=



000
FTUS41 KOKX 181300 AAA
TAFGON
TAF AMD
KGON 181305Z 1813/1912 19013KT P6SM SCT110
     FM181500 22011KT P6SM SCT060 BKN100
     FM181700 25010KT P6SM BKN100
     FM181900 27012G20KT P6SM SCT035 BKN080
     FM182300 28009KT P6SM BKN060
     FM190200 29008KT P6SM BKN080
     FM190900 30010G18KT P6SM SCT035 BKN080=



000
FTUS41 KOKX 181100 RRA
TAFLGA
TAF
KLGA 181141Z 1812/1912 23007KT P6SM BKN090
     FM181400 26010KT P6SM FEW025 BKN070
     FM181700 27015G23KT P6SM BKN050
     FM182300 28014G22KT P6SM SCT050 BKN080
     FM190200 28012G18KT P6SM FEW045 BKN080
     FM190800 31016G25KT P6SM FEW035 BKN060=



000
FTUS41 KOKX 181100 RRA
TAFISP
TAF
KISP 181141Z 1812/1912 23007KT P6SM FEW015 SCT090
     FM181400 25010KT P6SM FEW020 BKN090
     FM181700 27013G21KT P6SM BKN045
     FM182300 28011G19KT P6SM SCT045 BKN080
     FM190200 30009KT P6SM FEW045 BKN080
     FM191000 30012G21KT P6SM FEW035 BKN060=



000
FTUS41 KOKX 181100 RRA
TAFJFK
TAF
KJFK 181141Z 1812/1918 22009KT P6SM BKN090
     FM181400 25012KT P6SM FEW020 BKN070
     FM181700 27018G25KT P6SM BKN050
     FM182300 28016G24KT P6SM SCT050 BKN080
     FM190200 29014G20KT P6SM FEW045 BKN080
     FM190800 30015G24KT P6SM FEW035 BKN060
     FM191200 31019G28KT P6SM SCT050=



000
FTUS41 KOKX 181100 RRA
TAFTEB
TAF
KTEB 181141Z 1812/1912 21005KT P6SM BKN090
     FM181400 26009KT P6SM FEW025 BKN070
     FM181700 27014G22KT P6SM BKN050
     FM182300 28010G18KT P6SM SCT050 BKN080
     FM190200 29009KT P6SM FEW045 BKN080
     FM190800 30011G19KT P6SM FEW035 BKN060=



000
FTUS41 KOKX 181100 RRA
TAFBDR
TAF
KBDR 181141Z 1812/1912 23010KT P6SM BKN090
     FM181500 25010KT P6SM FEW020 BKN070
     FM181800 27012G20KT P6SM BKN050
     FM182300 28010G18KT P6SM SCT050 BKN080
     FM190200 28008KT P6SM FEW045 BKN080
     FM191000 30010G18KT P6SM FEW035 BKN060=



000
FTUS41 KOKX 181100 RRA
TAFEWR
TAF
KEWR 181141Z 1812/1918 23007KT P6SM BKN090
     FM181400 25010KT P6SM FEW025 BKN070
     FM181700 27016G24KT P6SM BKN050
     FM182300 28013G21KT P6SM SCT050 BKN080
     FM190200 27012G18KT P6SM FEW045 BKN080
     FM190800 29013G23KT P6SM FEW035 BKN060
     FM191200 31020G29KT P6SM SCT050=



000
FTUS41 KOKX 181100 RRA
TAFSWF
TAF
KSWF 181141Z 1812/1918 VRB03KT P6SM BKN080
     FM181400 28009KT P6SM VCSH SCT030 BKN050
     FM181600 29013G20KT P6SM BKN040
     FM182300 29009G15KT P6SM BKN040
     FM190200 29009KT P6SM FEW035 SCT080
     FM190500 29011KT P6SM SCT035 BKN080
     FM190800 29014G23KT P6SM SCT035 BKN080
     FM191300 30019G26KT P6SM SCT045
      AMD NOT SKED=



000
FTUS41 KOKX 181100 RRA
TAFGON
TAF
KGON 181141Z 1812/1912 20011KT P6SM SCT015 BKN100
      TEMPO 1812/1815 BKN015
     FM181600 25010KT P6SM SCT060 BKN100
     FM181900 27012G20KT P6SM SCT035 BKN080
     FM182300 28009KT P6SM BKN060
     FM190200 29008KT P6SM BKN080
     FM190900 30010G18KT P6SM SCT035 BKN080=



000
FTUS41 KOKX 181100 RRA
TAFEWR
TAF
KEWR 181141Z 1812/1918 23007KT P6SM BKN090
     FM181400 25010KT P6SM FEW025 BKN070
     FM181700 27016G24KT P6SM BKN050
     FM182300 28013G21KT P6SM SCT050 BKN080
     FM190200 27012G18KT P6SM FEW045 BKN080
     FM190800 29013G23KT P6SM FEW035 BKN060
     FM191200 31020G29KT P6SM SCT050=



000
FTUS41 KOKX 181100 RRA
TAFTEB
TAF
KTEB 181141Z 1812/1912 21005KT P6SM BKN090
     FM181400 26009KT P6SM FEW025 BKN070
     FM181700 27014G22KT P6SM BKN050
     FM182300 28010G18KT P6SM SCT050 BKN080
     FM190200 29009KT P6SM FEW045 BKN080
     FM190800 30011G19KT P6SM FEW035 BKN060=



000
FTUS41 KOKX 181100 RRA
TAFISP
TAF
KISP 181141Z 1812/1912 23007KT P6SM FEW015 SCT090
     FM181400 25010KT P6SM FEW020 BKN090
     FM181700 27013G21KT P6SM BKN045
     FM182300 28011G19KT P6SM SCT045 BKN080
     FM190200 30009KT P6SM FEW045 BKN080
     FM191000 30012G21KT P6SM FEW035 BKN060=



000
FTUS41 KOKX 181100 RRA
TAFJFK
TAF
KJFK 181141Z 1812/1918 22009KT P6SM BKN090
     FM181400 25012KT P6SM FEW020 BKN070
     FM181700 27018G25KT P6SM BKN050
     FM182300 28016G24KT P6SM SCT050 BKN080
     FM190200 29014G20KT P6SM FEW045 BKN080
     FM190800 30015G24KT P6SM FEW035 BKN060
     FM191200 31019G28KT P6SM SCT050=



000
FTUS41 KOKX 181100 RRA
TAFSWF
TAF
KSWF 181141Z 1812/1918 VRB03KT P6SM BKN080
     FM181400 28009KT P6SM VCSH SCT030 BKN050
     FM181600 29013G20KT P6SM BKN040
     FM182300 29009G15KT P6SM BKN040
     FM190200 29009KT P6SM FEW035 SCT080
     FM190500 29011KT P6SM SCT035 BKN080
     FM190800 29014G23KT P6SM SCT035 BKN080
     FM191300 30019G26KT P6SM SCT045
      AMD NOT SKED=



000
FTUS41 KOKX 181100 RRA
TAFBDR
TAF
KBDR 181141Z 1812/1912 23010KT P6SM BKN090
     FM181500 25010KT P6SM FEW020 BKN070
     FM181800 27012G20KT P6SM BKN050
     FM182300 28010G18KT P6SM SCT050 BKN080
     FM190200 28008KT P6SM FEW045 BKN080
     FM191000 30010G18KT P6SM FEW035 BKN060=



000
FTUS41 KOKX 181100 RRA
TAFGON
TAF
KGON 181141Z 1812/1912 20011KT P6SM SCT015 BKN100
      TEMPO 1812/1815 BKN015
     FM181600 25010KT P6SM SCT060 BKN100
     FM181900 27012G20KT P6SM SCT035 BKN080
     FM182300 28009KT P6SM BKN060
     FM190200 29008KT P6SM BKN080
     FM190900 30010G18KT P6SM SCT035 BKN080=



000
FTUS41 KOKX 181100 RRA
TAFLGA
TAF
KLGA 181141Z 1812/1912 23007KT P6SM BKN090
     FM181400 26010KT P6SM FEW025 BKN070
     FM181700 27015G23KT P6SM BKN050
     FM182300 28014G22KT P6SM SCT050 BKN080
     FM190200 28012G18KT P6SM FEW045 BKN080
     FM190800 31016G25KT P6SM FEW035 BKN060=



000
FTUS41 KOKX 180900 AAA
TAFLGA
TAF AMD
KLGA 180902Z 1809/1906 23007KT P6SM BKN090
     FM181400 26011G19KT P6SM FEW025 BKN070
     FM181700 27015G23KT P6SM BKN045
     FM182300 28014G22KT P6SM SCT045 BKN080
     FM190200 28012G18KT P6SM FEW045 BKN080=



000
FTUS41 KOKX 180900 AAA
TAFBDR
TAF AMD
KBDR 180902Z 1809/1906 22009KT P6SM BKN090
     FM181500 25010KT P6SM FEW020 BKN070
     FM181700 27012G20KT P6SM BKN045
     FM182300 27011G19KT P6SM SCT045 BKN080
     FM190200 28008KT P6SM FEW045 BKN080=



000
FTUS41 KOKX 180900 AAA
TAFISP
TAF AMD
KISP 180902Z 1809/1906 21007KT P6SM SCT100
     FM181300 25010G16KT P6SM FEW020 BKN090
     FM181700 27014G22KT P6SM BKN045
     FM182300 28012G20KT P6SM SCT045 BKN080
     FM190200 29011G17KT P6SM FEW045 BKN080=



000
FTUS41 KOKX 180900 AAA
TAFGON
TAF AMD
KGON 180902Z 1809/1906 22008KT P6SM FEW015 SCT100
     FM181300 22008KT P6SM FEW015 BKN100
     FM181500 24009G15KT P6SM SCT060 BKN100
     FM181800 26013G21KT P6SM SCT035 BKN080
     FM182300 28010G18KT P6SM BKN060
     FM190200 28008KT P6SM BKN080=



000
FTUS41 KOKX 180900 AAA
TAFEWR
TAF AMD
KEWR 180902Z 1809/1912 23005KT P6SM BKN090
     FM181300 25011KT P6SM FEW025 BKN070
     FM181600 27017G24KT P6SM BKN045
     FM182300 28013G21KT P6SM SCT045 BKN080
     FM190200 27012G18KT P6SM FEW045 BKN080
     FM190800 29013G23KT P6SM FEW035 OVC060=



000
FTUS41 KOKX 180900 AAA
TAFJFK
TAF AMD
KJFK 180902Z 1809/1912 23009KT P6SM BKN090
     FM181400 26012KT P6SM BKN045
     FM181700 27018G25KT P6SM BKN045
     FM182300 28016G24KT P6SM SCT045 BKN080
     FM190200 29014G20KT P6SM FEW045 BKN080
     FM190800 30015G25KT P6SM FEW035 OVC060=



000
FTUS41 KOKX 180900 AAA
TAFTEB
TAF AMD
KTEB 180902Z 1809/1906 19004KT P6SM BKN090
     FM181400 26010G17KT P6SM FEW025 BKN070
     FM181700 27014G22KT P6SM BKN045
     FM182300 28010G18KT P6SM SCT045 BKN080
     FM190200 29009KT P6SM FEW045 BKN080=



000
FTUS41 KOKX 180600 CCA
TAFISP
TAF COR
KISP 180605Z 1806/1906 22006KT P6SM FEW070
     FM181000 22007KT P6SM FEW015 BKN070
     FM181400 25010G16KT P6SM FEW020 BKN070
     FM181700 27014G22KT P6SM BKN045
     FM182300 28012G20KT P6SM SCT045 BKN080
     FM190200 29011G17KT P6SM FEW045 BKN080=



000
FTUS41 KOKX 180600 RRA
TAFGON
TAF
KGON 180605Z 1806/1906 24009KT P6SM BKN015
     FM180800 23008KT P6SM SCT015 SCT080
     FM181100 21007KT P6SM FEW015 BKN100
     FM181500 23009G15KT P6SM SCT060 BKN100
     FM181700 26013G21KT P6SM SCT035 BKN080
     FM182300 28010G18KT P6SM BKN060
     FM190200 28008KT P6SM BKN080=



000
FTUS41 KOKX 180500 RRA
TAFSWF
TAF
KSWF 180559Z 1806/1912 VRB04KT P6SM SCT080
     FM180900 25004KT P6SM BKN080
     FM181400 27008KT P6SM VCSH BKN035
     FM181600 29014G21KT P6SM BKN040
     FM182000 29014G21KT P6SM SCT040 BKN080
     FM182300 29010KT P6SM BKN035
     FM190200 29010KT P6SM FEW035 SCT080
     FM190500 29010KT P6SM SCT035 BKN080
     FM190900 29014G24KT P6SM SCT035 BKN080
      AMD NOT SKED=



000
FTUS41 KOKX 180500 RRA
TAFBDR
TAF
KBDR 180553Z 1806/1906 22008KT P6SM FEW015 SCT070
     FM181000 22008KT P6SM FEW015 BKN070
     FM181400 25009KT P6SM FEW020 BKN070
     FM181700 27012G20KT P6SM BKN045
     FM182300 27011G19KT P6SM SCT045 BKN080
     FM190200 28008KT P6SM FEW045 BKN080=



000
FTUS41 KOKX 180500 RRA
TAFISP
TAF
KISP 180552Z 1806/1906 22006KT P6SM SCT070
     FM181000 22007KT P6SM FEW015 BKN070
     FM181400 25010KT P6SM FEW020 BKN070
     FM181700 27014G22KT P6SM BKN045
     FM182300 28012G20KT P6SM SCT045 BKN080
     FM190200 29011G17KT P6SM FEW045 BKN080=



000
FTUS41 KOKX 180500 RRA
TAFJFK
TAF
KJFK 180549Z 1806/1912 22008KT P6SM SCT070
     FM180800 22009KT P6SM BKN070
     FM181500 26012KT P6SM BKN045
     FM181700 27018G25KT P6SM BKN045
     FM182300 28016G24KT P6SM SCT045 BKN080
     FM190200 29014G20KT P6SM FEW045 BKN080
     FM190800 30015G25KT P6SM FEW035 OVC060=



000
FTUS41 KOKX 180500 RRA
TAFTEB
TAF
KTEB 180549Z 1806/1906 20004KT P6SM BKN070
     FM181300 26007KT P6SM FEW025 BKN070
     FM181600 27014G22KT P6SM BKN045
     FM182300 28010G18KT P6SM SCT045 BKN080
     FM190200 29009KT P6SM FEW045 BKN080=



000
FTUS41 KOKX 180500 RRA
TAFLGA
TAF
KLGA 180549Z 1806/1906 21007KT P6SM SCT070
     FM180800 22007KT P6SM BKN070
     FM181200 24008KT P6SM BKN070
     FM181500 26011G19KT P6SM FEW025 BKN070
     FM181700 27015G23KT P6SM BKN045
     FM182300 28014G22KT P6SM SCT045 BKN080
     FM190200 28012G18KT P6SM FEW045 BKN080=



000
FTUS41 KOKX 180500 RRA
TAFEWR
TAF
KEWR 180549Z 1806/1912 21008KT P6SM BKN070
     FM181300 25010KT P6SM FEW025 BKN070
     FM181600 27017G24KT P6SM BKN045
     FM182300 28013G21KT P6SM SCT045 BKN080
     FM190200 27012G18KT P6SM FEW045 BKN080
     FM190800 29013G23KT P6SM FEW035 OVC060=



000
FTUS41 KOKX 180200 AAA
TAFTEB
TAF AMD
KTEB 180235Z 1803/1824 21005KT P6SM FEW070 SCT250
     FM181200 24007KT P6SM SCT050
     FM181500 28013G20KT P6SM BKN050=



000
FTUS41 KOKX 180200 AAA
TAFLGA
TAF AMD
KLGA 180235Z 1803/1824 22009KT P6SM FEW070 SCT250
     FM181200 26010KT P6SM SCT050
     FM181500 28015G23KT P6SM BKN050=



000
FTUS41 KOKX 180200 AAA
TAFEWR
TAF AMD
KEWR 180235Z 1803/1906 22007KT P6SM FEW070 SCT250
     FM181200 26010KT P6SM SCT050
     FM181500 27016G24KT P6SM BKN050
     FM190100 29012KT P6SM SCT120=



000
FTUS41 KOKX 180200 AAA
TAFBDR
TAF AMD
KBDR 180235Z 1803/1824 21009KT P6SM FEW250
     FM180600 22006KT P6SM FEW070 SCT250
     FM181200 24008KT P6SM FEW070 SCT250
     FM181600 27012G18KT P6SM BKN050=



000
FTUS41 KOKX 180200 AAA
TAFISP
TAF AMD
KISP 180235Z 1803/1824 22008KT P6SM FEW070 SCT250
     FM181200 24009KT P6SM FEW070 SCT250
     FM181600 27013G21KT P6SM BKN050=



000
FTUS41 KOKX 180200 AAA
TAFGON
TAF AMD
KGON 180235Z 1803/1824 21013KT P6SM SKC
     FM180700 22007KT P6SM FEW250
     FM181400 24009KT P6SM BKN060
     FM181700 26011G18KT P6SM BKN060=



000
FTUS41 KOKX 180200 AAA
TAFJFK
TAF AMD
KJFK 180235Z 1803/1906 22010KT P6SM FEW070 SCT250
     FM181200 25012KT P6SM SCT050
     FM181500 27017G25KT P6SM BKN050
     FM190100 30014KT P6SM SCT120=



000
FTUS41 KOKX 172300
TAFTEB
TAF
KTEB 172323Z 1800/1824 21007KT P6SM SKC
     FM180200 22004KT P6SM FEW070 SCT250
     FM181200 24007KT P6SM SCT050
     FM181500 28013G20KT P6SM BKN050=



000
FTUS41 KOKX 172300
TAFJFK
TAF
KJFK 172323Z 1800/1906 21009KT P6SM FEW070 SCT250
     FM181200 25012KT P6SM SCT050
     FM181500 27017G25KT P6SM BKN050
     FM190100 30014KT P6SM SCT120=



000
FTUS41 KOKX 172300
TAFSWF
TAF
KSWF 172323Z 1800/1906 25005KT P6SM FEW060 SCT250
     FM181100 27008KT P6SM BKN040
     FM181500 28012G21KT P6SM BKN040
     FM182300 28010KT P6SM SCT100
      AMD NOT SKED=



000
FTUS41 KOKX 172300
TAFGON
TAF
KGON 172323Z 1800/1824 21010KT P6SM SKC
     FM180300 22006KT P6SM FEW250
     FM181400 24009KT P6SM BKN060
     FM181700 26011G18KT P6SM BKN060=



000
FTUS41 KOKX 172300
TAFLGA
TAF
KLGA 172323Z 1800/1824 21008KT P6SM FEW070 SCT250
     FM181200 26010KT P6SM SCT050
     FM181500 28015G23KT P6SM BKN050=



000
FTUS41 KOKX 172300
TAFLGA
TAF
KLGA 172323Z 1800/1824 21008KT P6SM FEW070 SCT250
     FM181200 26010KT P6SM SCT050
     FM181500 28015G23KT P6SM BKN050=



000
FTUS41 KOKX 172300
TAFTEB
TAF
KTEB 172323Z 1800/1824 21007KT P6SM SKC
     FM180200 22004KT P6SM FEW070 SCT250
     FM181200 24007KT P6SM SCT050
     FM181500 28013G20KT P6SM BKN050=



000
FTUS41 KOKX 172300
TAFSWF
TAF
KSWF 172323Z 1800/1906 25005KT P6SM FEW060 SCT250
     FM181100 27008KT P6SM BKN040
     FM181500 28012G21KT P6SM BKN040
     FM182300 28010KT P6SM SCT100
      AMD NOT SKED=



000
FTUS41 KOKX 172300
TAFJFK
TAF
KJFK 172323Z 1800/1906 21009KT P6SM FEW070 SCT250
     FM181200 25012KT P6SM SCT050
     FM181500 27017G25KT P6SM BKN050
     FM190100 30014KT P6SM SCT120=



000
FTUS41 KOKX 172300
TAFBDR
TAF
KBDR 172323Z 1800/1824 20012KT P6SM SKC
     FM180200 21006KT P6SM FEW250
     FM180600 22006KT P6SM FEW070 SCT250
     FM181200 24008KT P6SM FEW070 SCT250
     FM181600 27012G18KT P6SM BKN050=



000
FTUS41 KOKX 172300
TAFEWR
TAF
KEWR 172323Z 1800/1906 22007KT P6SM FEW070 SCT250
     FM181200 26010KT P6SM SCT050
     FM181500 27016G24KT P6SM BKN050
     FM190100 29012KT P6SM SCT120=



000
FTUS41 KOKX 172300
TAFGON
TAF
KGON 172323Z 1800/1824 21010KT P6SM SKC
     FM180300 22006KT P6SM FEW250
     FM181400 24009KT P6SM BKN060
     FM181700 26011G18KT P6SM BKN060=



000
FTUS41 KOKX 172300
TAFISP
TAF
KISP 172323Z 1800/1824 21007KT P6SM FEW250
     FM180600 22006KT P6SM FEW070 SCT250
     FM181200 24009KT P6SM FEW070 SCT250
     FM181600 27013G21KT P6SM BKN050=



000
FTUS41 KOKX 172300
TAFISP
TAF
KISP 172323Z 1800/1824 21007KT P6SM FEW250
     FM180600 22006KT P6SM FEW070 SCT250
     FM181200 24009KT P6SM FEW070 SCT250
     FM181600 27013G21KT P6SM BKN050=



000
FTUS41 KOKX 172300
TAFBDR
TAF
KBDR 172323Z 1800/1824 20012KT P6SM SKC
     FM180200 21006KT P6SM FEW250
     FM180600 22006KT P6SM FEW070 SCT250
     FM181200 24008KT P6SM FEW070 SCT250
     FM181600 27012G18KT P6SM BKN050=



000
FTUS41 KOKX 172300
TAFEWR
TAF
KEWR 172323Z 1800/1906 22007KT P6SM FEW070 SCT250
     FM181200 26010KT P6SM SCT050
     FM181500 27016G24KT P6SM BKN050
     FM190100 29012KT P6SM SCT120=



000
FTUS41 KOKX 172000 AAA
TAFEWR
TAF AMD
KEWR 172031Z 1720/1824 23011G19KT P6SM SCT050
     FM180000 22006KT P6SM SCT070
     FM181200 26010KT P6SM SCT050
     FM181500 28016G24KT P6SM BKN050=



000
FTUS41 KOKX 172000 AAA
TAFTEB
TAF AMD
KTEB 172031Z 1720/1818 21010G17KT P6SM SCT050
     FM180000 21005KT P6SM SCT070
     FM181200 24007KT P6SM SCT050
     FM181600 27013G21KT P6SM BKN050=



000
FTUS41 KOKX 172000 AAA
TAFISP
TAF AMD
KISP 172031Z 1720/1818 21014KT P6SM FEW050
     FM172300 21006KT P6SM SCT070
     FM181200 24009KT P6SM SCT050
     FM181500 27014G22KT P6SM SCT050=



000
FTUS41 KOKX 172000 AAA
TAFJFK
TAF AMD
KJFK 172031Z 1720/1824 17012KT P6SM FEW050
     FM180000 21009KT P6SM SCT070
     FM181200 25011KT P6SM SCT050
     FM181500 27017G25KT P6SM SCT050=



000
FTUS41 KOKX 172000 AAA
TAFSWF
TAF AMD
KSWF 172031Z 1720/1824 23010G17KT P6SM SCT040
     FM172300 22004KT P6SM SCT060
     FM181200 25008KT P6SM SCT040
     FM181500 27014G23KT P6SM BKN040
      AMD NOT SKED=



000
FTUS41 KOKX 172000 AAA
TAFBDR
TAF AMD
KBDR 172031Z 1720/1818 22011KT P6SM FEW050
     FM180000 22005KT P6SM SCT070
     FM181200 25008KT P6SM SCT050
     FM181700 27012G19KT P6SM SCT050=



000
FTUS41 KOKX 172000 AAA
TAFGON
TAF AMD
KGON 172031Z 1720/1818 21010KT P6SM SKC
     FM180000 22006KT P6SM SCT070
     FM181200 24008KT P6SM SCT050
     FM181600 26012G20KT P6SM SCT050=



000
FTUS41 KOKX 172000 AAA
TAFLGA
TAF AMD
KLGA 172031Z 1720/1818 23012G19KT P6SM FEW050
     FM180000 22007KT P6SM SCT070
     FM181200 26010KT P6SM SCT050
     FM181500 28015G23KT P6SM SCT050=



    US Dept of Commerce
    National Oceanic and Atmospheric Administration
    National Weather Service
    1325 East West Highway
    Silver Spring, MD 20910
    Page Author: NWS Internet Services Team
Disclaimer
Information Quality
Credits
Glossary
Privacy Policy
Freedom of Information Act (FOIA)
About Us
Career Opportunities